Work at SourceForge, help us to make it a better place! We have an immediate need for a Support Technician in our San Francisco or Denver office.

Close

#17 NMEA-log: some incomplete lines

V 0.1.3
open
NaviPOWM (34)
5
2008-06-27
2008-06-27
Niko Paltzer
No

I a 1.7 MB log-file I found several incomplete lines at different positions in the file:

$GPGGA,103634.0,73

$GPGGA,103639.0,4937.

$GPGGA,103641.0,4937.

$GPGGA,103643.0,4937.

$GPGGA,103731.0,4938.021840

$GPGGA,

This happened on an O2 Xda Orbit2 with WM6.

I can provide the complete log or other informations if necessary.

Discussion

  • Julian Bugariu
    Julian Bugariu
    2008-06-27

    Logged In: YES
    user_id=1917316
    Originator: NO

    Please provide at least say 50 lines of the log file, in which 2 or 3 corrupted lines were found. This will help track the problem down. Thanx.

     
  • Niko Paltzer
    Niko Paltzer
    2008-06-27

    part of a log-file with some incomplete lines

     
    Attachments
  • Niko Paltzer
    Niko Paltzer
    2008-06-27

    Logged In: YES
    user_id=1131545
    Originator: YES

    Thanks for the quick response. Here are some more lines. I will additionally attach the part of the file that contains all incomplete lines stated above.

    $GPGGA,103633.0,4937.918494,N,00650.685230,E,1,07,16.4,581.5,M,,,,*3F

    $GPRMC,103633.0,A,4937.918494,N,00650.685230,E,10.8,70.1,270608,,,A*67

    $GPGSA,A,3,07,24,10,25,27,255,255,,,,,,22.3,16.4,15.1*05

    $GPVTG,70.1,T,,M,10.8,N,20.0,K*5D

    $GPGSV,3,1,11,02,26,229,13,04,11,201,,08,69,177,14,07,59,066,25*7E

    $GPGSV,3,2,11,24,18,316,29,10,56,295,26,25,38,054,26,26,12,270,*7B

    $GPGSV,3,3,11,27,66,071,24,13,31,080,11,28,06,160,*4F

    $GPGGA,103634.0,73

    $GPGSV,3,3,11,27,66,071,24,13,31,080,11,28,06,160,*4F

    $GPGGA,103635.0,4937.921368,N,00650.694081,E,1,07,7.8,581.0,M,,,,*06

    $GPRMC,103635.0,A,4937.921368,N,00650.694081,E,11.1,68.7,270608,,,A*60

    $GPGSA,A,3,08,07,24,10,25,27,255,,,,,,10.9,7.8,7.5*3F

    $GPVTG,68.7,T,,M,11.1,N,20.5,K*5F

    $GPGSV,3,1,11,02,26,229,13,04,11,201,,08,69,177,13,07,59,066,22*7E

    $GPGSV,3,2,11,24,18,316,30,10,56,295,26,25,38,054,26,26,12,270,*73

    $GPGSV,3,3,11,27,66,071,22,13,31,080,11,28,06,160,*49

    $GPGGA,103636.0,4937.922303,N,00650.698617,E,1,07,10.0,581.0,M,,,,*30

    $GPRMC,103636.0,A,4937.922303,N,00650.698617,E,11.2,69.5,270608,,,A*68

    $GPGSA,A,3,07,24,10,25,27,255,255,,,,,,13.8,10.0,9.5*37

    $GPVTG,69.5,T,,M,11.2,N,20.8,K*52

    $GPGSV,3,1,11,02,26,229,13,04,11,201,,08,69,177,13,07,59,066,22*7E

    $GPGSV,3,2,11,24,18,316,30,10,56,295,26,25,38,054,24,26,12,270,*71

    $GPGSV,3,3,11,27,66,071,20,13,31,080,11,28,06,160,*4B

    $GPGGA,103637.0,4937.923611,N,00650.703294,E,1,06,9.5,581.0,M,,,,*06

    $GPRMC,103637.0,A,4937*70

    $GPGSV,3,3,11,27,66,071,21,13,31,080,11,28,06,160,*4A

    $GPGGA,103638.0,4937.924199,N,00650.707881,E,1,06,7.0,580.5,M,,,,*0C

    $GPRMC,103638.0,A,4937.924199,N,00650.707881,E,10.9,73.2,270608,,,A*61

    $GPGSA,A,3,08,07,24,10,25,27,,,,,,,9.8,7.0,6.9*31

    $GPVTG,73.2,T,,M,10.9,N,20.1,K*5D

    $GPGSV,3,1,11,02,26,229,13,04,11,201,,08,69,177,16,07,59,066,22*7B

    $GPGSV,3,2,11,24,18,316,31,10,56,295,27,25,38,054,27,26,12,270,*72

    $GPGSV,3,3,11,27,66,071,22,13,31,080,13,28,06,160,*4B

    $GPGGA,103639.0,4937.

    $GPGSV,3,3,11,27,66,071,22,13,31,080,13,28,06,160,*4B

    $GPGGA,103640.0,4937.926558,N,00650.716325,E,1,07,5.7,580.0,M,,,,*0C

    $GPRMC,103640.0,A,4937.926558,N,00650.716325,E,10.8,73.4,270608,,,A*67

    $GPGSA,A,3,08,07,24,10,25,27,255,,,,,,8.0,5.7,5.6*03

    $GPVTG,73.4,T,,M,10.8,N,20.0,K*5B

    $GPGSV,3,1,11,02,26,229,13,04,11,201,,08,69,177,15,07,59,066,24*7E

    $GPGSV,3,2,11,24,18,316,29,10,56,295,26,25,38,054,26,26,12,270,*7B

    $GPGSV,3,3,11,27,66,071,22,13,31,080,13,28,06,160,*4B

    $GPGGA,103641.0,4937.

    $GPGSV,3,3,11,27,66,071,24,13,31,080,13,28,06,160,*4D

    $GPGGA,103642.0,4937.929326,N,00650.724824,E,1,07,5.8,579.0,M,,,,*0C

    $GPRMC,103642.0,A,4937.929326,N,00650.724824,E,10.7,69.2,270608,,,A*6C

    $GPGSA,A,3,07,24,10,25,27,255,255,,,,,,8.2,5.8,5.7*35

    $GPVTG,69.2,T,,M,10.7,N,19.8,K*5B

    $GPGSV,3,1,11,02,26,229,,04,11,201,,08,69,177,15,07,58,066,22*7B

    $GPGSV,3,2,11,24,18,316,27,10,56,295,25,25,38,054,25,26,12,270,*75

    $GPGSV,3,3,11,27,66,071,23,13,31,080,12,28,06,160,*4B

    $GPGGA,103643.0,4937.

    $GPGSV,3,3,11,27,66,071,22,13,31,080,12,28,06,160,*4A
    File Added: 2008062700.txt